Time;durP1;ratioP1;P1;durP2;ratioP2;P2;SDS_P1;SDS_P2;PMS_P1;PMS_P2;Temp;Humidity;BMP_temperature;BMP_pressure;BME280_temperature;BME280_humidity;BME280_pressure;Samples;Min_cycle;Max_cycle;Signal;HPM_P1;HPM_P2
2022/04/01 00:00:15;;;;;;;19.27;18.37;;;5.30;65.40;;;;;;4997273;28;20301;-89
2022/04/01 00:02:41;;;;;;;21.27;20.27;;;5.30;65.40;;;;;;5009870;28;20037;-89
2022/04/01 00:05:07;;;;;;;19.57;18.67;;;5.20;65.30;;;;;;5008763;28;20038;-90
2022/04/01 00:07:34;;;;;;;19.43;18.53;;;5.20;65.30;;;;;;5009236;28;20060;-91
2022/04/01 00:10:00;;;;;;;20.50;19.50;;;5.20;65.20;;;;;;5015969;28;20386;-88
2022/04/01 00:12:26;;;;;;;18.93;18.03;;;5.20;65.20;;;;;;5006295;28;20038;-89
2022/04/01 00:14:53;;;;;;;20.37;19.47;;;5.20;65.20;;;;;;5017293;28;20030;-90
2022/04/01 00:17:19;;;;;;;20.07;19.07;;;5.20;65.20;;;;;;5022075;28;20046;-92
2022/04/01 00:19:45;;;;;;;20.07;19.17;;;5.20;65.20;;;;;;5006733;28;20387;-90
2022/04/01 00:22:11;;;;;;;19.77;18.87;;;5.20;65.20;;;;;;5011224;28;20038;-90
2022/04/01 00:24:37;;;;;;;19.30;18.40;;;5.20;65.20;;;;;;5022884;28;20033;-91
2022/04/01 00:27:03;;;;;;;20.07;19.03;;;5.10;65.20;;;;;;5007836;28;20227;-91
2022/04/01 00:29:30;;;;;;;21.17;20.17;;;5.10;65.30;;;;;;5009360;28;20106;-89
2022/04/01 00:31:59;;;;;;;20.30;19.30;;;5.10;65.30;;;;;;5021965;28;20476;-90
2022/04/01 00:34:26;;;;;;;17.90;17.10;;;5.10;65.40;;;;;;5010923;28;20036;-90
2022/04/01 00:36:53;;;;;;;20.40;19.50;;;5.10;65.50;;;;;;5026122;28;20052;-90
2022/04/01 00:39:19;;;;;;;18.50;17.67;;;5.00;65.50;;;;;;5008845;28;20079;-90
2022/04/01 00:41:46;;;;;;;19.17;18.27;;;5.00;65.60;;;;;;5004449;28;20046;-90
2022/04/01 00:44:15;;;;;;;19.90;19.00;;;5.00;65.60;;;;;;5022807;28;20399;-88
2022/04/01 00:46:52;;;;;;;19.30;18.40;;;5.00;65.60;;;;;;5007380;28;20034;-88
2022/04/01 00:49:19;;;;;;;18.87;17.97;;;5.00;65.70;;;;;;5022015;28;20054;-89
2022/04/01 00:51:46;;;;;;;19.33;18.43;;;5.00;65.70;;;;;;5023732;28;20391;-90
2022/04/01 00:54:13;;;;;;;19.27;18.37;;;5.00;65.80;;;;;;4996532;28;20068;-88
2022/04/01 00:56:39;;;;;;;26.17;24.93;;;5.00;65.80;;;;;;5004617;28;20034;-92
2022/04/01 00:59:06;;;;;;;21.07;19.97;;;5.00;65.90;;;;;;5018558;28;20038;-88
2022/04/01 01:01:36;;;;;;;19.63;18.73;;;5.00;65.90;;;;;;5008509;28;20034;-90
2022/04/01 01:04:03;;;;;;;18.23;17.43;;;5.00;66.00;;;;;;5012609;28;20034;-89
2022/04/01 01:06:30;;;;;;;19.47;18.57;;;5.00;65.90;;;;;;5022066;28;20021;-89
2022/04/01 01:08:56;;;;;;;22.40;21.33;;;5.00;65.90;;;;;;5011804;28;20383;-90
2022/04/01 01:11:22;;;;;;;20.23;19.23;;;5.00;65.90;;;;;;5011326;28;20037;-90
2022/04/01 01:13:48;;;;;;;20.87;19.87;;;5.00;65.90;;;;;;5005927;28;20033;-89
2022/04/01 01:16:15;;;;;;;19.33;18.43;;;5.00;65.90;;;;;;5012815;28;20026;-91
2022/04/01 01:18:42;;;;;;;18.73;17.87;;;4.90;66.00;;;;;;5025956;28;20046;-89
2022/04/01 01:21:09;;;;;;;20.10;19.20;;;4.90;66.00;;;;;;5010420;28;20025;-89
2022/04/01 01:23:39;;;;;;;19.40;18.50;;;4.90;66.00;;;;;;5012595;28;20041;-90
2022/04/01 01:26:05;;;;;;;19.27;18.37;;;4.90;66.10;;;;;;5009369;28;20406;-90
2022/04/01 01:28:31;;;;;;;18.70;17.83;;;4.90;66.10;;;;;;5012444;28;20041;-91
2022/04/01 01:30:57;;;;;;;18.57;17.73;;;4.90;66.10;;;;;;5015303;28;20037;-90
2022/04/01 01:33:25;;;;;;;19.07;18.17;;;4.90;66.20;;;;;;5011455;28;20387;-91
2022/04/01 01:35:51;;;;;;;19.53;18.63;;;4.80;66.10;;;;;;5013445;28;20475;-89
2022/04/01 01:38:18;;;;;;;18.10;17.30;;;4.80;66.10;;;;;;4996090;28;20057;-90
2022/04/01 01:40:45;;;;;;;18.93;18.03;;;4.80;66.10;;;;;;5009188;28;20037;-90
2022/04/01 01:43:12;;;;;;;18.43;17.63;;;4.80;66.10;;;;;;5021511;28;20060;-91
2022/04/01 01:45:38;;;;;;;19.10;18.20;;;4.80;66.10;;;;;;5012960;28;20041;-88
2022/04/01 01:48:04;;;;;;;18.53;17.73;;;4.80;66.10;;;;;;5009793;28;20041;-89
2022/04/01 01:55:59;;;;;;;18.13;17.33;;;4.70;66.20;;;;;;5001172;28;20383;-89
2022/04/01 01:58:27;;;;;;;18.53;17.67;;;4.70;66.20;;;;;;5011198;28;20042;-88
2022/04/01 02:00:53;;;;;;;18.87;17.97;;;4.70;66.20;;;;;;5025649;28;20026;-91
2022/04/01 02:03:19;;;;;;;18.77;17.87;;;4.60;66.20;;;;;;5006549;28;20149;-89
2022/04/01 02:05:46;;;;;;;18.20;17.37;;;4.60;66.30;;;;;;5021466;28;20026;-90
2022/04/01 02:08:12;;;;;;;18.70;17.80;;;4.60;66.30;;;;;;5007957;28;20046;-88
2022/04/01 02:10:39;;;;;;;18.00;17.13;;;4.50;66.40;;;;;;5014212;28;20026;-89
2022/04/01 02:13:05;;;;;;;18.20;17.40;;;4.60;66.50;;;;;;5012682;28;20545;-90
2022/04/01 02:15:32;;;;;;;18.57;17.73;;;4.60;66.50;;;;;;5024336;28;20038;-90
2022/04/01 02:17:58;;;;;;;18.30;17.50;;;4.50;66.40;;;;;;5024369;28;20045;-89
2022/04/01 02:20:25;;;;;;;18.67;17.80;;;4.50;66.40;;;;;;5010243;28;20037;-88
2022/04/01 02:22:53;;;;;;;17.20;16.37;;;4.40;66.40;;;;;;5024456;28;20039;-89
2022/04/01 02:25:19;;;;;;;18.50;17.67;;;4.40;66.50;;;;;;5013918;28;20050;-88
2022/04/01 02:27:45;;;;;;;17.67;16.87;;;4.40;66.50;;;;;;5025039;28;20397;-89
2022/04/01 02:30:11;;;;;;;18.90;18.00;;;4.40;66.50;;;;;;5023829;28;20018;-88
2022/04/01 02:32:40;;;;;;;18.13;17.33;;;4.40;66.50;;;;;;5009306;28;20034;-88
2022/04/01 02:35:08;;;;;;;18.97;18.07;;;4.40;66.40;;;;;;5024484;28;20057;-90
2022/04/01 02:37:34;;;;;;;18.73;17.83;;;4.40;66.40;;;;;;5025501;28;20390;-87
2022/04/01 02:40:01;;;;;;;18.07;17.27;;;4.40;66.40;;;;;;5026555;28;20033;-88
2022/04/01 02:42:27;;;;;;;19.30;18.40;;;4.40;66.40;;;;;;5011980;28;20030;-87
2022/04/01 02:44:53;;;;;;;18.70;17.80;;;4.40;66.30;;;;;;5009089;28;20383;-88
2022/04/01 02:47:20;;;;;;;19.00;18.10;;;4.40;66.30;;;;;;5023543;28;20056;-89
2022/04/01 02:49:46;;;;;;;18.33;17.53;;;4.30;67.10;;;;;;5025319;28;20046;-87
2022/04/01 02:52:13;;;;;;;17.77;16.97;;;4.30;66.30;;;;;;5027516;28;20796;-89
2022/04/01 02:54:39;;;;;;;18.20;17.40;;;4.30;66.30;;;;;;5024192;28;20406;-89
2022/04/01 02:57:05;;;;;;;16.67;15.87;;;4.30;66.30;;;;;;5010450;28;20426;-90
2022/04/01 02:59:32;;;;;;;18.17;17.27;;;4.30;66.30;;;;;;5010281;28;20041;-88
2022/04/01 03:01:58;;;;;;;18.17;17.37;;;4.20;66.30;;;;;;5006875;28;20391;-89
2022/04/01 03:04:24;;;;;;;17.03;16.23;;;4.20;66.30;;;;;;5010984;28;20033;-89
2022/04/01 03:06:50;;;;;;;18.13;17.33;;;4.20;66.20;;;;;;5024724;28;20045;-88
2022/04/01 03:09:16;;;;;;;17.83;17.03;;;4.20;66.30;;;;;;5011620;28;20501;-88
2022/04/01 03:11:42;;;;;;;18.77;17.87;;;4.20;66.30;;;;;;5017701;28;20034;-88
2022/04/01 03:14:09;;;;;;;18.17;17.37;;;4.10;66.30;;;;;;5023591;28;20036;-88
2022/04/01 03:16:37;;;;;;;17.90;17.10;;;4.10;66.30;;;;;;4991976;28;20038;-88
2022/04/01 03:19:04;;;;;;;17.67;16.87;;;4.20;67.10;;;;;;5021767;28;20045;-88
2022/04/01 03:21:30;;;;;;;1999.90;999.90;;;4.10;66.20;;;;;;5011886;28;20034;-88
2022/04/01 03:23:56;;;;;;;1999.90;999.90;;;4.10;66.20;;;;;;5010088;28;20044;-89
2022/04/01 03:26:23;;;;;;;1999.90;999.90;;;4.10;66.10;;;;;;5023443;28;20064;-91
2022/04/01 03:28:49;;;;;;;1999.90;999.90;;;4.00;66.10;;;;;;5023844;28;20045;-90
2022/04/01 03:31:15;;;;;;;1999.90;999.90;;;4.10;66.10;;;;;;4996927;28;20041;-88
2022/04/01 03:33:41;;;;;;;1999.90;999.90;;;4.00;66.00;;;;;;5040314;28;20034;-88
2022/04/01 03:36:08;;;;;;;1999.90;999.90;;;4.00;66.00;;;;;;5010518;28;20439;-87
2022/04/01 03:38:34;;;;;;;1999.90;999.90;;;4.00;65.90;;;;;;5009970;28;20106;-88
2022/04/01 03:41:01;;;;;;;1999.90;999.90;;;4.10;65.90;;;;;;5022951;28;20037;-90
2022/04/01 03:43:28;;;;;;;1999.90;999.90;;;4.10;65.80;;;;;;5011274;28;20037;-89
2022/04/01 03:45:54;;;;;;;1999.90;999.90;;;4.10;65.80;;;;;;5023795;28;20026;-90
2022/04/01 03:48:35;;;;;;;1999.90;999.90;;;4.00;65.80;;;;;;5024295;28;20038;-88
2022/04/01 03:51:01;;;;;;;1999.90;999.90;;;4.00;65.80;;;;;;5008673;28;20045;-86
2022/04/01 03:53:29;;;;;;;1999.90;999.90;;;4.00;65.80;;;;;;5010357;28;20042;-87
2022/04/01 03:55:56;;;;;;;1999.90;999.90;;;4.00;65.80;;;;;;5023001;28;20034;-88
2022/04/01 03:58:27;;;;;;;1999.90;999.90;;;4.00;65.80;;;;;;5011286;28;20505;-87
2022/04/01 04:00:54;;;;;;;1999.90;999.90;;;4.00;65.80;;;;;;5023561;28;20033;-87
2022/04/01 04:03:20;;;;;;;1999.90;999.90;;;3.90;65.70;;;;;;5022235;28;20041;-88
2022/04/01 04:05:47;;;;;;;1999.90;999.90;;;4.00;65.80;;;;;;5010551;28;20037;-88
2022/04/01 04:08:17;;;;;;;1999.90;999.90;;;4.00;65.80;;;;;;5022688;28;20049;-87
2022/04/01 04:10:43;;;;;;;1999.90;999.90;;;4.00;65.80;;;;;;5000216;28;20382;-87
2022/04/01 04:13:09;;;;;;;1999.90;999.90;;;4.00;65.70;;;;;;5013955;28;20034;-87
2022/04/01 04:16:31;;;;;;;1999.90;999.90;;;4.00;65.70;;;;;;5021902;28;20050;-87
2022/04/01 04:19:07;;;;;;;1999.90;999.90;;;4.00;65.60;;;;;;4991580;28;20056;-87
2022/04/01 04:21:42;;;;;;;1999.90;999.90;;;4.00;65.50;;;;;;4993796;28;20057;-86
2022/04/01 04:24:13;;;;;;;1999.90;999.90;;;4.10;65.50;;;;;;5004745;28;20038;-88
2022/04/01 04:26:48;;;;;;;1999.90;999.90;;;4.00;65.50;;;;;;4971593;28;20038;-86
2022/04/01 04:29:15;;;;;;;1999.90;999.90;;;4.00;65.50;;;;;;5000716;28;20033;-88
2022/04/01 04:31:50;;;;;;;1999.90;999.90;;;4.00;65.50;;;;;;4987985;28;20045;-87
2022/04/01 04:34:17;;;;;;;1999.90;999.90;;;4.00;65.50;;;;;;5001158;28;20038;-87
2022/04/01 04:36:43;;;;;;;1999.90;999.90;;;4.00;65.40;;;;;;4980119;28;20042;-87
2022/04/01 04:39:19;;;;;;;1999.90;999.90;;;4.00;65.40;;;;;;4992868;28;20050;-89
2022/04/01 04:41:45;;;;;;;1999.90;999.90;;;4.00;65.30;;;;;;4970831;28;20042;-86
2022/04/01 04:44:11;;;;;;;1999.90;999.90;;;4.00;65.30;;;;;;4984210;28;20041;-87
2022/04/01 04:46:39;;;;;;;1999.90;999.90;;;4.00;65.30;;;;;;4988730;28;20086;-87
2022/04/01 04:49:05;;;;;;;1999.90;999.90;;;4.10;65.50;;;;;;4980181;28;20065;-88
2022/04/01 04:51:31;;;;;;;1999.90;999.90;;;4.00;65.40;;;;;;4971220;28;20425;-87
2022/04/01 04:53:59;;;;;;;1999.90;999.90;;;4.00;65.40;;;;;;5004169;28;20033;-86
2022/04/01 04:56:26;;;;;;;1999.90;999.90;;;4.00;65.30;;;;;;5011025;28;20041;-87
2022/04/01 04:58:53;;;;;;;1999.90;999.90;;;4.00;65.40;;;;;;4993142;28;20054;-86
2022/04/01 05:01:34;;;;;;;1999.90;999.90;;;4.00;65.40;;;;;;5014674;28;20049;-88
2022/04/01 05:04:22;;;;;;;1999.90;999.90;;;4.00;65.40;;;;;;5028216;28;20044;-86
2022/04/01 05:06:53;;;;;;;1999.90;999.90;;;4.00;65.40;;;;;;5026057;28;20379;-86
2022/04/01 05:09:38;;;;;;;1999.90;999.90;;;4.00;65.30;;;;;;4999617;28;20049;-87
2022/04/01 05:12:19;;;;;;;1999.90;999.90;;;4.00;65.50;;;;;;5012162;28;20037;-86
2022/04/01 05:15:04;;;;;;;;;;;4.00;65.50;;;;;;5011102;28;20034;-87
2022/04/01 05:17:35;;;;;;;1999.90;999.90;;;4.00;65.40;;;;;;5009364;28;19936;-87
2022/04/01 05:20:11;;;;;;;1999.90;999.90;;;4.00;65.30;;;;;;5009113;28;20418;-89
2022/04/01 05:22:53;;;;;;;1999.90;999.90;;;4.00;65.30;;;;;;5011702;28;20038;-87
2022/04/01 05:25:20;;;;;;;1999.90;999.90;;;4.00;65.60;;;;;;5009839;28;20034;-87
2022/04/01 05:27:49;;;;;;;1999.90;999.90;;;3.90;65.20;;;;;;5014654;28;20053;-86
2022/04/01 05:30:20;;;;;;;1999.90;999.90;;;4.00;65.30;;;;;;4998359;28;20042;-87
2022/04/01 05:32:52;;;;;;;;;;;4.00;65.30;;;;;;5013675;28;20030;-88
2022/04/01 05:35:19;;;;;;;1999.90;999.90;;;3.90;65.20;;;;;;5010163;28;20356;-86
2022/04/01 05:37:46;;;;;;;1999.90;999.90;;;3.90;65.20;;;;;;4992554;28;20117;-86
2022/04/01 05:40:14;;;;;;;1999.90;999.90;;;3.90;65.10;;;;;;5028782;28;20042;-87
2022/04/01 05:42:40;;;;;;;1999.90;999.90;;;3.90;65.10;;;;;;5007062;28;20042;-86
2022/04/01 05:45:06;;;;;;;1999.90;999.90;;;3.90;65.10;;;;;;5011046;28;20041;-86
2022/04/01 05:47:33;;;;;;;1999.90;999.90;;;4.00;65.20;;;;;;5011751;28;20502;-86
2022/04/01 05:49:59;;;;;;;1999.90;999.90;;;3.90;65.10;;;;;;5008344;28;20046;-87
2022/04/01 05:52:26;;;;;;;1999.90;999.90;;;4.00;65.20;;;;;;5027390;28;20046;-86
2022/04/01 05:54:52;;;;;;;1999.90;999.90;;;4.00;65.20;;;;;;5007224;28;20042;-87
2022/04/01 05:57:18;;;;;;;1999.90;999.90;;;4.00;65.10;;;;;;5011797;28;20044;-88
2022/04/01 05:59:45;;;;;;;1999.90;999.90;;;4.00;65.10;;;;;;5024411;28;20050;-84
2022/04/01 06:02:17;;;;;;;1999.90;999.90;;;4.00;65.00;;;;;;5007879;28;20034;-86
2022/04/01 06:05:04;;;;;;;1999.90;999.90;;;4.00;65.00;;;;;;5025321;28;20479;-86
2022/04/01 06:07:38;;;;;;;1999.90;999.90;;;4.00;65.10;;;;;;5023669;28;20014;-86
2022/04/01 06:10:09;;;;;;;1999.90;999.90;;;4.10;65.00;;;;;;5030624;28;20025;-86
2022/04/01 06:12:45;;;;;;;;;;;4.10;64.90;;;;;;5011883;28;20042;-86
2022/04/01 06:15:21;;;;;;;1999.90;999.90;;;4.10;64.90;;;;;;5011249;28;20139;-86
2022/04/01 06:18:06;;;;;;;1999.90;999.90;;;4.10;64.80;;;;;;5012433;28;20390;-86
2022/04/01 06:20:33;;;;;;;1999.90;999.90;;;4.10;64.80;;;;;;5010657;28;20061;-86
2022/04/01 06:23:04;;;;;;;1999.90;999.90;;;4.10;64.70;;;;;;5024810;28;20045;-86
2022/04/01 06:25:31;;;;;;;1999.90;999.90;;;4.10;64.70;;;;;;5011488;28;20498;-87
2022/04/01 06:28:08;;;;;;;1999.90;999.90;;;4.20;64.70;;;;;;4998248;28;20034;-87
2022/04/01 06:30:34;;;;;;;1999.90;999.90;;;4.40;64.60;;;;;;5009748;28;20045;-86
2022/04/01 06:33:00;;;;;;;1999.90;999.90;;;4.50;64.20;;;;;;4997824;28;20038;-86
2022/04/01 06:35:31;;;;;;;1999.90;999.90;;;4.80;63.90;;;;;;5008853;28;20049;-87
2022/04/01 06:38:06;;;;;;;1999.90;999.90;;;5.00;63.50;;;;;;5009120;28;20019;-86
2022/04/01 06:40:59;;;;;;;1999.90;999.90;;;5.10;63.20;;;;;;5009347;28;20042;-87
2022/04/01 06:43:26;;;;;;;1999.90;999.90;;;5.40;63.00;;;;;;5007189;28;20045;-86
2022/04/01 06:45:53;;;;;;;1999.90;999.90;;;5.50;62.70;;;;;;5026607;28;20057;-86
2022/04/01 06:48:19;;;;;;;1999.90;999.90;;;5.70;62.60;;;;;;5011721;28;20410;-87
2022/04/01 06:50:49;;;;;;;1999.90;999.90;;;5.80;62.40;;;;;;5008718;28;20486;-86
2022/04/01 06:53:16;;;;;;;1999.90;999.90;;;5.90;62.20;;;;;;5010510;28;20049;-86
2022/04/01 06:55:43;;;;;;;1999.90;999.90;;;6.10;62.10;;;;;;4991326;28;20038;-87
2022/04/01 06:58:11;;;;;;;1999.90;999.90;;;6.20;61.90;;;;;;5026766;28;20038;-87
2022/04/01 07:00:41;;;;;;;1999.90;999.90;;;6.30;61.80;;;;;;5022986;28;20037;-87
2022/04/01 07:03:10;;;;;;;1999.90;999.90;;;6.40;61.80;;;;;;5023642;28;20029;-87
2022/04/01 07:05:36;;;;;;;1999.90;999.90;;;6.40;61.50;;;;;;5008566;28;20046;-85
2022/04/01 07:08:06;;;;;;;1999.90;999.90;;;6.50;61.50;;;;;;5007262;28;20037;-86
2022/04/01 07:10:32;;;;;;;1999.90;999.90;;;6.60;61.30;;;;;;5029774;28;20029;-86
2022/04/01 07:12:58;;;;;;;1999.90;999.90;;;6.60;61.20;;;;;;5012983;28;20022;-86
2022/04/01 07:15:25;;;;;;;1999.90;999.90;;;6.80;61.40;;;;;;5022296;28;20038;-88
2022/04/01 07:17:51;;;;;;;1999.90;999.90;;;6.90;61.10;;;;;;5011215;28;20037;-86
2022/04/01 07:20:18;;;;;;;1999.90;999.90;;;7.00;60.90;;;;;;5007830;28;20372;-86
2022/04/01 07:22:44;;;;;;;1999.90;999.90;;;7.00;60.70;;;;;;4975749;28;20057;-87
2022/04/01 07:25:10;;;;;;;1999.90;999.90;;;7.10;60.60;;;;;;5026735;28;20034;-87
2022/04/01 07:27:36;;;;;;;1999.90;999.90;;;7.10;60.70;;;;;;5022936;28;20502;-86
2022/04/01 07:30:03;;;;;;;1999.90;999.90;;;7.20;60.60;;;;;;5022904;28;20483;-87
2022/04/01 07:32:33;;;;;;;1999.90;999.90;;;7.20;60.40;;;;;;4995998;28;20038;-87
2022/04/01 07:35:00;;;;;;;1999.90;999.90;;;7.30;60.30;;;;;;5006652;28;20019;-87
2022/04/01 07:37:27;;;;;;;1999.90;999.90;;;7.40;60.00;;;;;;5025399;28;20053;-88
2022/04/01 07:39:57;;;;;;;1999.90;999.90;;;7.40;59.90;;;;;;5024235;28;20042;-86
2022/04/01 07:42:24;;;;;;;1999.90;999.90;;;7.50;59.80;;;;;;5008555;28;20045;-88
2022/04/01 07:44:50;;;;;;;1999.90;999.90;;;7.60;59.70;;;;;;5011094;28;20414;-86
2022/04/01 07:47:18;;;;;;;1999.90;999.90;;;7.70;59.50;;;;;;5022637;28;20037;-87
2022/04/01 07:49:45;;;;;;;1999.90;999.90;;;7.80;59.30;;;;;;4992061;28;20403;-87
2022/04/01 07:52:13;;;;;;;1999.90;999.90;;;7.80;59.20;;;;;;5018358;28;20115;-87
2022/04/01 07:54:40;;;;;;;1999.90;999.90;;;7.90;59.10;;;;;;5010437;28;20482;-87
2022/04/01 07:57:07;;;;;;;1999.90;999.90;;;8.00;59.00;;;;;;5010202;28;20033;-87
2022/04/01 07:59:33;;;;;;;1999.90;999.90;;;8.10;58.80;;;;;;4995350;28;20068;-88
2022/04/01 08:02:00;;;;;;;1999.90;999.90;;;8.20;58.80;;;;;;4991794;28;20034;-87
2022/04/01 08:04:27;;;;;;;1999.90;999.90;;;8.30;58.60;;;;;;4994527;28;20053;-87
2022/04/01 08:06:56;;;;;;;1999.90;999.90;;;8.40;58.50;;;;;;5023901;28;20034;-89
2022/04/01 08:09:23;;;;;;;1999.90;999.90;;;8.40;58.30;;;;;;5010461;28;20041;-87
2022/04/01 08:11:50;;;;;;;1999.90;999.90;;;8.50;58.10;;;;;;5014808;28;20025;-89
2022/04/01 08:14:19;;;;;;;1999.90;999.90;;;8.60;57.90;;;;;;5006982;28;20045;-87
2022/04/01 08:16:46;;;;;;;1999.90;999.90;;;8.60;57.60;;;;;;5006377;28;20497;-87
2022/04/01 08:19:12;;;;;;;1999.90;999.90;;;8.60;57.60;;;;;;5021715;28;20046;-89
2022/04/01 08:21:39;;;;;;;1999.90;999.90;;;8.70;57.50;;;;;;5010694;28;20367;-88
2022/04/01 08:24:05;;;;;;;1999.90;999.90;;;8.80;57.20;;;;;;5010361;28;20483;-88
2022/04/01 08:26:31;;;;;;;1999.90;999.90;;;8.80;56.90;;;;;;5007625;28;20041;-88
2022/04/01 08:28:57;;;;;;;1999.90;999.90;;;8.80;56.50;;;;;;5022807;28;20038;-88
2022/04/01 08:31:24;;;;;;;1999.90;999.90;;;8.80;56.40;;;;;;5010696;28;20030;-89
2022/04/01 08:33:53;;;;;;;1999.90;999.90;;;8.90;56.50;;;;;;5023696;28;20038;-87
2022/04/01 08:36:19;;;;;;;1999.90;999.90;;;9.00;56.50;;;;;;5010213;28;20022;-87
2022/04/01 08:38:45;;;;;;;1999.90;999.90;;;9.20;56.30;;;;;;4995740;28;20049;-89
2022/04/01 08:41:18;;;;;;;1999.90;999.90;;;9.30;55.90;;;;;;5006643;28;20030;-90
2022/04/01 08:43:45;;;;;;;1999.90;999.90;;;9.30;55.70;;;;;;4990612;28;20030;-88
2022/04/01 08:46:12;;;;;;;1999.90;999.90;;;9.30;55.60;;;;;;5013521;28;20349;-88
2022/04/01 08:48:38;;;;;;;1999.90;999.90;;;9.30;55.60;;;;;;5009616;28;20498;-89
2022/04/01 08:51:04;;;;;;;1999.90;999.90;;;9.40;55.50;;;;;;5022301;28;20398;-90
2022/04/01 08:53:37;;;;;;;1999.90;999.90;;;9.40;55.50;;;;;;5008209;28;20038;-91
2022/04/01 08:56:03;;;;;;;1999.90;999.90;;;9.50;55.30;;;;;;5005803;28;20031;-88
2022/04/01 08:58:29;;;;;;;1999.90;999.90;;;9.50;55.00;;;;;;4993834;28;20044;-88
2022/04/01 09:00:57;;;;;;;1999.90;999.90;;;9.40;54.90;;;;;;5010989;28;20049;-87
2022/04/01 09:03:23;;;;;;;1999.90;999.90;;;9.40;55.10;;;;;;5022343;28;20030;-88
2022/04/01 09:06:00;;;;;;;1999.90;999.90;;;9.30;55.10;;;;;;5010395;28;20459;-88
2022/04/01 09:08:39;;;;;;;1999.90;999.90;;;9.30;55.20;;;;;;5008543;28;20494;-88
2022/04/01 09:11:19;;;;;;;1999.90;999.90;;;9.20;55.00;;;;;;4995542;28;20050;-87
2022/04/01 09:13:51;;;;;;;1999.90;999.90;;;9.20;54.90;;;;;;4990216;28;20022;-90
2022/04/01 09:16:31;;;;;;;1999.90;999.90;;;9.20;54.80;;;;;;5006137;28;20046;-88
2022/04/01 09:18:58;;;;;;;1999.90;999.90;;;9.10;54.70;;;;;;5008464;28;20324;-89
2022/04/01 09:21:29;;;;;;;1999.90;999.90;;;9.10;54.50;;;;;;5011225;28;20029;-88
2022/04/01 09:23:56;;;;;;;1999.90;999.90;;;9.10;54.40;;;;;;5009540;28;20035;-87
2022/04/01 09:26:28;;;;;;;1999.90;999.90;;;9.20;54.10;;;;;;5021902;28;20030;-86
2022/04/01 09:28:54;;;;;;;1999.90;999.90;;;9.20;53.90;;;;;;5007137;28;20026;-90
2022/04/01 09:31:22;;;;;;;1999.90;999.90;;;9.20;53.60;;;;;;4994580;28;20034;-89
2022/04/01 09:33:53;;;;;;;1999.90;999.90;;;9.30;53.50;;;;;;5012381;28;20037;-89
2022/04/01 09:36:24;;;;;;;1999.90;999.90;;;9.50;53.10;;;;;;5021826;28;20520;-89
2022/04/01 09:39:01;;;;;;;1999.90;999.90;;;9.80;53.00;;;;;;5011908;28;20033;-88
2022/04/01 09:41:47;;;;;;;1999.90;999.90;;;10.00;52.50;;;;;;5011415;28;20049;-88
2022/04/01 09:44:17;;;;;;;1999.90;999.90;;;10.00;52.20;;;;;;5008905;28;20427;-89
2022/04/01 09:46:48;;;;;;;1999.90;999.90;;;9.90;52.30;;;;;;4992301;28;20026;-88
2022/04/01 09:49:33;;;;;;;1999.90;999.90;;;9.90;52.40;;;;;;5024467;28;20038;-87
2022/04/01 09:51:59;;;;;;;1999.90;999.90;;;9.90;52.20;;;;;;4996497;28;20368;-90
2022/04/01 09:54:25;;;;;;;1999.90;999.90;;;9.90;52.00;;;;;;5007979;28;20040;-87
2022/04/01 09:56:55;;;;;;;1999.90;999.90;;;10.00;52.00;;;;;;5010838;28;20038;-88
2022/04/01 09:59:23;;;;;;;1999.90;999.90;;;10.00;51.70;;;;;;4995763;28;20064;-87
2022/04/01 10:01:49;;;;;;;1999.90;999.90;;;10.00;51.50;;;;;;5024598;28;20033;-88
2022/04/01 10:04:15;;;;;;;1999.90;999.90;;;9.90;51.60;;;;;;5028300;28;20026;-87
2022/04/01 10:06:42;;;;;;;1999.90;999.90;;;9.80;51.50;;;;;;5041232;28;20033;-88
2022/04/01 10:09:12;;;;;;;1999.90;999.90;;;9.60;51.60;;;;;;5012514;28;20025;-88
2022/04/01 10:11:42;;;;;;;1999.90;999.90;;;9.50;51.70;;;;;;5029687;28;20041;-86
2022/04/01 10:14:16;;;;;;;1999.90;999.90;;;9.60;51.70;;;;;;5008350;28;20422;-88
2022/04/01 10:16:43;;;;;;;1999.90;999.90;;;9.60;51.50;;;;;;4991868;28;20030;-88
2022/04/01 10:19:14;;;;;;;1999.90;999.90;;;9.70;51.50;;;;;;5015787;28;20045;-87
2022/04/01 10:21:43;;;;;;;1999.90;999.90;;;9.70;51.50;;;;;;5008364;28;20030;-90
2022/04/01 10:24:23;;;;;;;1999.90;999.90;;;9.80;51.50;;;;;;5009263;28;20053;-88
2022/04/01 10:26:56;;;;;;;1999.90;999.90;;;9.80;51.40;;;;;;5009383;28;20041;-87
2022/04/01 10:29:24;;;;;;;1999.90;999.90;;;9.80;51.10;;;;;;5026159;28;20040;-90
2022/04/01 10:31:55;;;;;;;1999.90;999.90;;;9.70;51.10;;;;;;5023796;28;20034;-88
2022/04/01 10:34:22;;;;;;;1999.90;999.90;;;9.80;51.20;;;;;;5011015;28;20053;-88
2022/04/01 10:37:00;;;;;;;1999.90;999.90;;;9.70;50.80;;;;;;5011069;28;20034;-87
2022/04/01 10:39:26;;;;;;;1999.90;999.90;;;9.70;50.80;;;;;;5006211;28;20065;-86
2022/04/01 10:42:06;;;;;;;1999.90;999.90;;;9.60;50.70;;;;;;5004838;28;20497;-87
2022/04/01 10:45:03;;;;;;;1999.90;999.90;;;9.50;50.90;;;;;;5024175;28;20033;-88
2022/04/01 10:51:36;;;;;;;1999.90;999.90;;;9.50;50.90;;;;;;5005845;28;20037;-87
2022/04/01 10:54:06;;;;;;;1999.90;999.90;;;9.50;51.00;;;;;;4996186;28;20022;-90
2022/04/01 10:56:34;;;;;;;1999.90;999.90;;;9.60;50.90;;;;;;4986097;28;20046;-88
2022/04/01 10:59:13;;;;;;;1999.90;999.90;;;9.70;50.80;;;;;;5004632;28;20037;-87
2022/04/01 11:02:02;;;;;;;1999.90;999.90;;;9.70;50.70;;;;;;4961811;28;20043;-87
2022/04/01 11:04:29;;;;;;;1999.90;999.90;;;9.70;50.60;;;;;;4970058;28;20046;-86
2022/04/01 11:07:02;;;;;;;1999.90;999.90;;;9.60;50.50;;;;;;4974051;28;20046;-87
2022/04/01 11:09:46;;;;;;;1999.90;999.90;;;9.60;50.50;;;;;;4986518;28;20053;-88
2022/04/01 11:12:15;;;;;;;1999.90;999.90;;;9.50;50.60;;;;;;4982752;28;20041;-89
2022/04/01 11:14:56;;;;;;;1999.90;999.90;;;9.50;50.70;;;;;;4986402;28;20054;-87
2022/04/01 11:17:23;;;;;;;1999.90;999.90;;;9.60;50.70;;;;;;5000463;28;20136;-88
2022/04/01 11:19:59;;;;;;;1999.90;999.90;;;9.70;50.40;;;;;;4987850;28;20045;-87
2022/04/01 11:22:35;;;;;;;1999.90;999.90;;;9.60;50.30;;;;;;5009544;28;20403;-87
2022/04/01 11:25:01;;;;;;;1999.90;999.90;;;9.50;50.30;;;;;;5025657;28;20034;-88
2022/04/01 11:27:28;;;;;;;1999.90;999.90;;;9.50;50.40;;;;;;5011120;28;20034;-88
2022/04/01 11:30:14;;;;;;;1999.90;999.90;;;9.50;50.40;;;;;;5013493;28;20021;-88
2022/04/01 11:32:42;;;;;;;1999.90;999.90;;;9.70;50.20;;;;;;5005704;28;20482;-89
2022/04/01 11:35:09;;;;;;;1999.90;999.90;;;9.90;50.10;;;;;;5006783;28;20052;-89
2022/04/01 11:37:37;;;;;;;1999.90;999.90;;;9.90;49.70;;;;;;5009515;28;20026;-88
2022/04/01 11:40:10;;;;;;;1999.90;999.90;;;10.00;49.70;;;;;;4996711;28;20049;-89
2022/04/01 11:42:58;;;;;;;1999.90;999.90;;;10.00;49.60;;;;;;4996733;28;20038;-89
2022/04/01 11:45:26;;;;;;;1999.90;999.90;;;10.00;49.70;;;;;;5010255;28;20041;-89
2022/04/01 11:47:52;;;;;;;1999.90;999.90;;;10.00;49.80;;;;;;5022320;28;20554;-89
2022/04/01 11:50:20;;;;;;;1999.90;999.90;;;10.00;49.80;;;;;;5024747;28;20045;-90
2022/04/01 11:52:48;;;;;;;1999.90;999.90;;;10.00;49.80;;;;;;5023207;28;20037;-87
2022/04/01 11:55:27;;;;;;;1999.90;999.90;;;10.00;49.80;;;;;;5018644;28;20037;-88
2022/04/01 11:57:55;;;;;;;1999.90;999.90;;;9.90;49.70;;;;;;5005352;28;20038;-88
2022/04/01 12:00:22;;;;;;;1999.90;999.90;;;9.80;49.70;;;;;;4995902;28;20056;-91
2022/04/01 12:02:53;;;;;;;1999.90;999.90;;;9.70;49.80;;;;;;5022352;28;20749;-89
2022/04/01 12:05:20;;;;;;;1999.90;999.90;;;9.50;50.20;;;;;;4993482;28;20046;-88
2022/04/01 12:10:40;;;;;;;1999.90;999.90;;;8.70;52.80;;;;;;5031000;28;20041;-85
2022/04/01 12:13:07;;;;;;;1999.90;999.90;;;8.20;54.30;;;;;;4996979;28;20041;-84
2022/04/01 12:15:34;;;;;;;1999.90;999.90;;;7.90;55.10;;;;;;5008482;28;20037;-86
2022/04/01 12:18:05;;;;;;;1999.90;999.90;;;7.80;55.40;;;;;;5006957;28;20033;-85
2022/04/01 12:20:33;;;;;;;1999.90;999.90;;;7.80;55.50;;;;;;4995031;28;20065;-88
2022/04/01 12:23:00;;;;;;;1999.90;999.90;;;8.00;55.50;;;;;;5006140;28;20387;-89
2022/04/01 12:25:28;;;;;;;1999.90;999.90;;;8.20;55.40;;;;;;4994758;28;20418;-88
2022/04/01 12:27:56;;;;;;;1999.90;999.90;;;8.50;55.20;;;;;;5011890;28;20102;-88
2022/04/01 12:30:28;;;;;;;1999.90;999.90;;;8.90;55.10;;;;;;5010271;28;20348;-89
2022/04/01 12:32:55;;;;;;;1999.90;999.90;;;9.20;54.70;;;;;;5006975;28;20034;-89
2022/04/01 12:35:22;;;;;;;1999.90;999.90;;;9.50;54.30;;;;;;4993701;28;20071;-88
2022/04/01 12:38:09;;;;;;;1999.90;999.90;;;9.60;54.20;;;;;;5022418;28;20045;-87